x

Stonewall Bank - 20nm West Of Newport, Or (46050) Wave Buoy

6:50pm - Wed 24th Aug 2016 All times are PDT. -7 hours from GMT.

  • Sig Wave height 3.9ft
  • Swell Direction
  • Peak Period 7s
  • Average Period 5s
  • Wind
    16mph
  • Sea Temp 54°f
  • Air Temp 59°f
  • Sea Pressure 1017.3mb
  • Stonewall Bank - 20nm West Of Newport, Or
  • Stonewall Bank - 20nm West Of Newport, Or

More Historic Weather Station data

Upgrade to MSW Pro to gain access to the past 30 days of data for over 8000 Wavebouys and Weather Stations around the globe.

Join Pro

Comparision Forecast

View Surf forecast
   
Wed 08/24 6:50pm 4ft 7s 5s 16
mph
1017.3mb 54f 59f
5:50pm 4.5ft 7s 5s 16 18 mph 1017.7mb 54f 59f
4:50pm 4.5ft 7s 5s 13 16 mph 1018.1mb 54f 59f
3:50pm 4.5ft 7s 5s 11
mph
1018.7mb 54f 58f
2:50pm 4.5ft 7s 6s 9 11 mph 1019.4mb 54f 58f
1:50pm 4.5ft 7s 6s 11
mph
1020mb 54f 57f
12:50pm 5.5ft 7s 6s 9 11 mph 1020.5mb 54f 56f
11:50am 5ft 7s 6s 11 16 mph 1021mb 53f 55f
10:50am 5ft 7s 6s 16 18 mph 1021.2mb 53f 57f
9:50am 5ft 7s 6s 11 13 mph 1021.3mb 53f 56f
8:50am 4.5ft 7s 5s 9
mph
1021.5mb 53f 56f
7:50am 4.5ft 7s 5s 11 13 mph 1021.2mb 53f 56f
6:50am 4.5ft 7s 5s 13 16 mph 1020.8mb 53f 57f
5:50am 4.5ft 7s 5s 13 16 mph 1020.3mb 53f 57f
4:50am 4.5ft 7s 5s 11
mph
1020.6mb 53f 56f
3:50am 4.5ft 6s 5s 11 13 mph 1020.5mb 53f 56f
2:50am 4.5ft 7s 5s 11 13 mph 1020.5mb 53f 57f
1:50am 4.5ft 7s 5s 13 16 mph 1020.6mb 53f 57f
12:50am 4.5ft 6s 5s 16 18 mph 1020.8mb 53f 57f
Tue 08/23 11:50pm 4.5ft 7s 5s 16 20 mph 1021.1mb 53f 57f
10:50pm 4.5ft 7s 5s 16 18 mph 1021.2mb 54f 58f
9:50pm 4.5ft 7s 5s 16 18 mph 1021.1mb 54f 58f
8:50pm 4.5ft 7s 5s 13 16 mph 1020.7mb 54f 57f
7:50pm 4.5ft 7s 5s 13
mph
1020.5mb 54f 57f
6:50pm 4ft 7s 5s 11
mph
1020.6mb 55f 57f
5:50pm 4ft 7s 5s 9
mph
1020.7mb 54f 56f
4:50pm 4.5ft 8s 5s 9
mph
1021mb 54f 56f
3:50pm 4.5ft 8s 5s 11 13 mph 1021.3mb 53f 56f
2:50pm 4.5ft 6s 5s 13 20 mph 1021.5mb 53f 55f
1:50pm 4.5ft 8s 5s 13 16 mph 1021.5mb 53f 55f
12:50pm 4.5ft 8s 5s 13 16 mph 1021.7mb 53f 54f
11:50am 4.5ft 8s 5s 13 18 mph 1021.8mb 53f 54f
10:50am 4.5ft 8s 5s 13 16 mph 1021.9mb 53f 54f
9:50am 5ft 6s 5s 13 18 mph 1021.5mb 53f 55f
8:50am 4.5ft 7s 5s 16 20 mph 1021mb 53f 55f
7:50am 5ft 6s 5s 18 22 mph 1020.3mb 53f 55f
6:50am 5ft 7s 5s 18 22 mph 1019.9mb 53f 56f
5:50am 5ft 7s 5s 16 20 mph 1019.3mb 53f 56f
4:50am 5ft 7s 5s 18 22 mph 1019.1mb 53f 56f
3:50am 5.5ft 8s 5s 18 20 mph 1019.1mb 53f 56f
2:50am 5ft 7s 5s 20 25 mph 1019mb 53f 56f
1:50am 5ft 7s 5s 20 22 mph 1019.2mb 53f 56f
12:50am 5ft 7s 5s 16 20 mph 1019.2mb 53f 56f
Mon 08/22 11:50pm 5ft 7s 5s 18 20 mph 1019.1mb 53f 56f
10:50pm 4.5ft 8s 5s 18 20 mph 1019mb 53f 57f
9:50pm 5ft 8s 5s 20 27 mph 1018.6mb 53f 57f
8:50pm 4.5ft 8s 5s 18 22 mph 1018.5mb 54f 57f
7:50pm 4.5ft 7s 5s 22 25 mph 1017.9mb 55f 58f
6:50pm 5ft 8s 5s 22 25 mph 1017.7mb 55f 58f
5:50pm 5ft 8s 5s 20 25 mph 1017.9mb 55f 58f
4:50pm 4.5ft 8s 5s 20 25 mph 1018mb 54f 58f
3:50pm 4.5ft 8s 5s 22 27 mph 1018.1mb 54f 58f
2:50pm 4.5ft 8s 5s 18 22 mph 1018.7mb 54f 58f
1:50pm 4.5ft 8s 5s 18 20 mph 1018.8mb 53f 57f
12:50pm 5ft 8s 6s 16 18 mph 1019.1mb 53f 57f
11:50am 4.5ft 7s 6s 13 16 mph 1019.3mb 53f 56f
10:50am 5ft 7s 6s 16
mph
1019.2mb 53f 56f
9:50am 5ft 7s 6s 16 18 mph 1019.2mb 53f 56f
8:50am 5ft 7s 6s 13 16 mph 1019mb 53f 56f
7:50am 4.5ft 7s 6s 13 16 mph 1018.5mb 54f 56f
6:50am 5ft 7s 6s 13 16 mph 1018.1mb 54f 56f
5:50am 5ft 7s 6s 16
mph
1017.7mb 54f 57f
4:50am 4.5ft 8s 6s 13 16 mph 1017.6mb 54f 57f
3:50am 5ft 7s 6s 13 16 mph 1017.4mb 54f 57f
2:50am 5ft 8s 6s 13 16 mph 1017.2mb 55f 57f
1:50am 5ft 7s 5s 16 18 mph 1017mb 55f 57f
12:50am 5.5ft 8s 5s 20 22 mph 1016.7mb 55f 57f
Sun 08/21 11:50pm 5ft 8s 5s 20 22 mph 1016.5mb 55f 58f
10:50pm 5ft 8s 6s 20 22 mph 1016.2mb 55f 58f
9:50pm 5ft 8s 6s 18 20 mph 1016.1mb 56f 58f
7:50pm 5ft 8s 6s 13 16 mph 1015.4mb 56f 59f
6:50pm 5.5ft 8s 7s 11 13 mph 1015.2mb 57f 59f
5:50pm 5.5ft 8s 7s 11 13 mph 1015.4mb 57f 59f
4:50pm 6.5ft 8s 7s 9 11 mph 1015.4mb 57f 58f
3:50pm 6ft 8s 6s 9
mph
1015.6mb 56f 58f
2:50pm 6ft 8s 7s 9 11 mph 1015.9mb 56f 57f
1:50pm 6ft 8s 7s 7 9 mph 1016.2mb 56f 58f
12:50pm 6ft 8s 7s 7 9 mph 1016.1mb 56f 58f
11:50am 6.5ft 8s 7s 4 7 mph 1016mb 55f 57f
10:50am 6ft 8s 7s 7
mph
1015.6mb 55f 57f
9:50am 7ft 8s 7s 2 4 mph 1015.2mb 55f 56f
8:50am 6ft 8s 7s 4 7 mph 1014.8mb 55f 57f
7:50am 5.5ft 8s 7s 2
mph
1014.3mb 56f 56f
6:50am 6ft 9s 7s 2
mph
1014mb 55f 56f
5:50am 7ft 9s 8s 4
mph
1013.5mb 55f 56f
4:50am 6ft 9s 7s 2 4 mph 1013.2mb 55f 56f
3:50am 6ft 9s 7s  -  2 mph 1013.2mb 55f 56f